sensor_id;sensor_type;location;lat;lon;timestamp;pressure;altitude;pressure_sealevel;temperature;humidity
12973;BME280;6551;51.056;9.466;2022-08-25T00:02:05;97938.66;;;23.71;57.29
12973;BME280;6551;51.056;9.466;2022-08-25T00:04:33;97931.81;;;23.55;57.40
12973;BME280;6551;51.056;9.466;2022-08-25T00:07:04;97939.47;;;23.53;57.43
12973;BME280;6551;51.056;9.466;2022-08-25T00:09:31;97937.03;;;23.51;57.46
12973;BME280;6551;51.056;9.466;2022-08-25T00:11:58;97945.47;;;23.68;56.95
12973;BME280;6551;51.056;9.466;2022-08-25T00:14:30;97935.53;;;23.77;56.49
12973;BME280;6551;51.056;9.466;2022-08-25T00:16:56;97943.09;;;23.80;56.60
12973;BME280;6551;51.056;9.466;2022-08-25T00:19:27;97933.16;;;23.90;56.77
12973;BME280;6551;51.056;9.466;2022-08-25T00:21:54;97930.75;;;24.20;56.08
12973;BME280;6551;51.056;9.466;2022-08-25T00:24:21;97936.19;;;24.20;55.24
12973;BME280;6551;51.056;9.466;2022-08-25T00:26:50;97925.81;;;24.22;54.79
12973;BME280;6551;51.056;9.466;2022-08-25T00:29:17;97933.28;;;23.98;55.54
12973;BME280;6551;51.056;9.466;2022-08-25T00:31:43;97923.84;;;23.77;55.98
12973;BME280;6551;51.056;9.466;2022-08-25T00:34:15;97927.81;;;23.84;56.00
12973;BME280;6551;51.056;9.466;2022-08-25T00:36:44;97925.25;;;23.74;56.51
12973;BME280;6551;51.056;9.466;2022-08-25T00:39:12;97927.22;;;23.69;56.71
12973;BME280;6551;51.056;9.466;2022-08-25T00:41:41;97926.97;;;23.52;56.88
12973;BME280;6551;51.056;9.466;2022-08-25T00:44:11;97935.13;;;23.52;56.75
12973;BME280;6551;51.056;9.466;2022-08-25T00:46:47;97933.53;;;23.83;56.28
12973;BME280;6551;51.056;9.466;2022-08-25T00:49:19;97933.63;;;23.78;56.21
12973;BME280;6551;51.056;9.466;2022-08-25T00:51:54;97934.38;;;23.65;56.25
12973;BME280;6551;51.056;9.466;2022-08-25T00:54:31;97937.91;;;23.47;56.35
12973;BME280;6551;51.056;9.466;2022-08-25T00:56:59;97936.28;;;23.64;56.62
12973;BME280;6551;51.056;9.466;2022-08-25T00:59:26;97930.53;;;23.66;56.09
12973;BME280;6551;51.056;9.466;2022-08-25T01:01:53;97935.25;;;23.23;57.17
12973;BME280;6551;51.056;9.466;2022-08-25T01:04:20;97935.47;;;23.26;57.38
12973;BME280;6551;51.056;9.466;2022-08-25T01:06:47;97931.31;;;23.53;58.08
12973;BME280;6551;51.056;9.466;2022-08-25T01:09:14;97932.09;;;23.72;57.30
12973;BME280;6551;51.056;9.466;2022-08-25T01:11:41;97935.47;;;23.26;58.77
12973;BME280;6551;51.056;9.466;2022-08-25T01:14:12;97934.75;;;23.21;58.11
12973;BME280;6551;51.056;9.466;2022-08-25T01:16:39;97927.75;;;23.34;59.06
12973;BME280;6551;51.056;9.466;2022-08-25T01:19:07;97916.59;;;23.35;59.41
12973;BME280;6551;51.056;9.466;2022-08-25T01:21:46;97928.44;;;23.63;58.98
12973;BME280;6551;51.056;9.466;2022-08-25T01:27:08;97923.28;;;23.94;59.85
12973;BME280;6551;51.056;9.466;2022-08-25T01:29:35;97932.38;;;24.03;61.21
12973;BME280;6551;51.056;9.466;2022-08-25T01:32:07;97915.63;;;24.14;60.83
12973;BME280;6551;51.056;9.466;2022-08-25T01:34:37;97920.38;;;24.36;59.96
12973;BME280;6551;51.056;9.466;2022-08-25T01:37:04;97916.94;;;24.71;59.28
12973;BME280;6551;51.056;9.466;2022-08-25T01:39:31;97925.53;;;24.78;59.05
12973;BME280;6551;51.056;9.466;2022-08-25T01:44:43;97913.69;;;25.10;58.49
12973;BME280;6551;51.056;9.466;2022-08-25T01:47:10;97915.03;;;25.13;57.90
12973;BME280;6551;51.056;9.466;2022-08-25T01:49:36;97910.69;;;25.12;57.90
12973;BME280;6551;51.056;9.466;2022-08-25T01:52:15;97916.22;;;25.20;57.47
12973;BME280;6551;51.056;9.466;2022-08-25T01:54:43;97898.88;;;25.02;57.68
12973;BME280;6551;51.056;9.466;2022-08-25T01:57:09;97904.94;;;24.99;57.73
12973;BME280;6551;51.056;9.466;2022-08-25T01:59:35;97904.69;;;24.87;58.26
12973;BME280;6551;51.056;9.466;2022-08-25T02:02:01;97907.00;;;24.80;58.13
12973;BME280;6551;51.056;9.466;2022-08-25T02:04:28;97902.44;;;24.62;58.26
12973;BME280;6551;51.056;9.466;2022-08-25T02:06:58;97900.59;;;24.71;58.36
12973;BME280;6551;51.056;9.466;2022-08-25T02:09:24;97900.91;;;24.70;57.66
12973;BME280;6551;51.056;9.466;2022-08-25T02:11:49;97899.50;;;24.59;57.23
12973;BME280;6551;51.056;9.466;2022-08-25T02:14:15;97903.44;;;24.53;57.33
12973;BME280;6551;51.056;9.466;2022-08-25T02:16:47;97906.75;;;24.63;57.37
12973;BME280;6551;51.056;9.466;2022-08-25T02:19:15;97910.09;;;24.74;57.34
12973;BME280;6551;51.056;9.466;2022-08-25T02:21:43;97902.03;;;24.41;57.46
12973;BME280;6551;51.056;9.466;2022-08-25T02:24:09;97899.69;;;24.21;58.56
12973;BME280;6551;51.056;9.466;2022-08-25T02:26:36;97911.31;;;24.40;58.01
12973;BME280;6551;51.056;9.466;2022-08-25T02:29:04;97908.59;;;24.68;57.38
12973;BME280;6551;51.056;9.466;2022-08-25T02:31:31;97908.66;;;24.22;57.92
12973;BME280;6551;51.056;9.466;2022-08-25T02:33:57;97903.47;;;24.07;58.90
12973;BME280;6551;51.056;9.466;2022-08-25T02:36:23;97904.16;;;23.85;58.64
12973;BME280;6551;51.056;9.466;2022-08-25T02:38:49;97892.81;;;23.78;58.35
12973;BME280;6551;51.056;9.466;2022-08-25T02:41:19;97897.53;;;23.72;58.44
12973;BME280;6551;51.056;9.466;2022-08-25T02:43:47;97895.53;;;23.78;58.89
12973;BME280;6551;51.056;9.466;2022-08-25T02:46:15;97889.50;;;23.81;58.95
12973;BME280;6551;51.056;9.466;2022-08-25T02:48:41;97894.31;;;23.70;59.20
12973;BME280;6551;51.056;9.466;2022-08-25T02:51:08;97893.41;;;23.75;59.18
12973;BME280;6551;51.056;9.466;2022-08-25T02:53:36;97893.03;;;23.81;58.84
12973;BME280;6551;51.056;9.466;2022-08-25T02:56:05;97879.16;;;23.97;58.91
12973;BME280;6551;51.056;9.466;2022-08-25T02:58:32;97884.56;;;23.83;59.04
12973;BME280;6551;51.056;9.466;2022-08-25T03:00:57;97886.19;;;23.84;59.19
12973;BME280;6551;51.056;9.466;2022-08-25T03:03:23;97878.28;;;24.01;59.13
12973;BME280;6551;51.056;9.466;2022-08-25T03:05:49;97888.91;;;23.84;59.97
12973;BME280;6551;51.056;9.466;2022-08-25T03:08:15;97882.00;;;24.05;59.10
12973;BME280;6551;51.056;9.466;2022-08-25T03:10:41;97885.53;;;24.06;58.08
12973;BME280;6551;51.056;9.466;2022-08-25T03:13:07;97887.72;;;23.58;59.01
12973;BME280;6551;51.056;9.466;2022-08-25T03:15:33;97884.66;;;23.46;58.93
12973;BME280;6551;51.056;9.466;2022-08-25T03:18:03;97888.69;;;23.29;58.57
12973;BME280;6551;51.056;9.466;2022-08-25T03:20:30;97877.19;;;23.38;58.89
12973;BME280;6551;51.056;9.466;2022-08-25T03:22:56;97876.88;;;23.39;57.30
12973;BME280;6551;51.056;9.466;2022-08-25T03:25:22;97881.06;;;23.32;57.49
12973;BME280;6551;51.056;9.466;2022-08-25T03:28:07;97881.41;;;23.44;57.97
12973;BME280;6551;51.056;9.466;2022-08-25T03:30:33;97882.84;;;22.80;59.88
12973;BME280;6551;51.056;9.466;2022-08-25T03:32:59;97898.03;;;23.42;59.83
12973;BME280;6551;51.056;9.466;2022-08-25T03:35:25;97895.16;;;23.34;60.26
12973;BME280;6551;51.056;9.466;2022-08-25T03:37:55;97895.63;;;23.41;60.19
12973;BME280;6551;51.056;9.466;2022-08-25T03:40:21;97892.22;;;23.49;58.29
12973;BME280;6551;51.056;9.466;2022-08-25T03:42:47;97897.81;;;23.01;58.82
12973;BME280;6551;51.056;9.466;2022-08-25T03:45:15;97897.25;;;22.99;58.43
12973;BME280;6551;51.056;9.466;2022-08-25T03:47:46;97892.53;;;23.10;58.27
12973;BME280;6551;51.056;9.466;2022-08-25T03:50:13;97884.47;;;22.81;59.63
12973;BME280;6551;51.056;9.466;2022-08-25T03:52:39;97880.53;;;22.74;60.28
12973;BME280;6551;51.056;9.466;2022-08-25T03:55:08;97877.22;;;22.77;60.57
12973;BME280;6551;51.056;9.466;2022-08-25T03:57:34;97880.91;;;22.38;61.62
12973;BME280;6551;51.056;9.466;2022-08-25T04:00:02;97873.75;;;22.47;60.88
12973;BME280;6551;51.056;9.466;2022-08-25T04:02:29;97873.41;;;22.30;60.71
12973;BME280;6551;51.056;9.466;2022-08-25T04:04:58;97867.88;;;22.40;60.89
12973;BME280;6551;51.056;9.466;2022-08-25T04:07:23;97875.53;;;22.33;60.13
12973;BME280;6551;51.056;9.466;2022-08-25T04:09:49;97877.00;;;22.26;61.30
12973;BME280;6551;51.056;9.466;2022-08-25T04:12:15;97875.31;;;22.30;61.82
12973;BME280;6551;51.056;9.466;2022-08-25T04:14:40;97880.88;;;22.43;61.86
12973;BME280;6551;51.056;9.466;2022-08-25T04:17:07;97884.16;;;22.40;60.70
12973;BME280;6551;51.056;9.466;2022-08-25T04:19:33;97884.66;;;22.42;60.48
12973;BME280;6551;51.056;9.466;2022-08-25T04:21:59;97892.47;;;21.96;62.09
12973;BME280;6551;51.056;9.466;2022-08-25T04:24:25;97882.00;;;21.85;62.54
12973;BME280;6551;51.056;9.466;2022-08-25T04:26:51;97892.63;;;22.10;61.32
12973;BME280;6551;51.056;9.466;2022-08-25T04:29:21;97890.44;;;22.12;61.33
12973;BME280;6551;51.056;9.466;2022-08-25T04:31:48;97886.28;;;22.20;61.74
12973;BME280;6551;51.056;9.466;2022-08-25T04:34:17;97877.13;;;22.16;61.75
12973;BME280;6551;51.056;9.466;2022-08-25T04:36:44;97881.66;;;22.20;62.05
12973;BME280;6551;51.056;9.466;2022-08-25T04:39:11;97881.00;;;22.52;61.53
12973;BME280;6551;51.056;9.466;2022-08-25T04:41:37;97878.97;;;22.67;61.18
12973;BME280;6551;51.056;9.466;2022-08-25T04:44:04;97878.75;;;22.83;61.97
12973;BME280;6551;51.056;9.466;2022-08-25T04:46:32;97881.69;;;22.86;61.75
12973;BME280;6551;51.056;9.466;2022-08-25T04:49:00;97878.06;;;22.96;60.16
12973;BME280;6551;51.056;9.466;2022-08-25T04:51:32;97878.94;;;23.10;59.71
12973;BME280;6551;51.056;9.466;2022-08-25T04:54:02;97878.81;;;21.78;62.20
12973;BME280;6551;51.056;9.466;2022-08-25T04:56:31;97879.84;;;22.10;62.12
12973;BME280;6551;51.056;9.466;2022-08-25T04:59:13;97876.50;;;21.95;62.97
12973;BME280;6551;51.056;9.466;2022-08-25T05:01:41;97870.31;;;22.18;63.66
12973;BME280;6551;51.056;9.466;2022-08-25T05:04:09;97872.72;;;22.43;64.12
12973;BME280;6551;51.056;9.466;2022-08-25T05:06:35;97867.09;;;23.01;63.74
12973;BME280;6551;51.056;9.466;2022-08-25T05:09:03;97857.41;;;23.32;63.80
12973;BME280;6551;51.056;9.466;2022-08-25T05:11:29;97857.63;;;23.54;63.49
12973;BME280;6551;51.056;9.466;2022-08-25T05:13:56;97860.19;;;24.24;61.87
12973;BME280;6551;51.056;9.466;2022-08-25T05:16:24;97857.44;;;24.78;60.27
12973;BME280;6551;51.056;9.466;2022-08-25T05:18:51;97860.56;;;25.21;59.58
12973;BME280;6551;51.056;9.466;2022-08-25T05:21:22;97860.59;;;25.88;57.33
12973;BME280;6551;51.056;9.466;2022-08-25T05:23:49;97856.34;;;26.83;55.70
12973;BME280;6551;51.056;9.466;2022-08-25T05:26:20;97862.03;;;27.29;55.11
12973;BME280;6551;51.056;9.466;2022-08-25T05:28:49;97864.41;;;27.82;53.39
12973;BME280;6551;51.056;9.466;2022-08-25T05:31:17;97862.63;;;28.41;52.31
12973;BME280;6551;51.056;9.466;2022-08-25T05:33:44;97864.78;;;28.65;51.94
12973;BME280;6551;51.056;9.466;2022-08-25T05:36:12;97863.31;;;29.17;50.61
12973;BME280;6551;51.056;9.466;2022-08-25T05:38:39;97862.88;;;29.36;49.81
12973;BME280;6551;51.056;9.466;2022-08-25T05:41:10;97862.16;;;29.80;49.23
12973;BME280;6551;51.056;9.466;2022-08-25T05:43:39;97869.78;;;30.07;48.50
12973;BME280;6551;51.056;9.466;2022-08-25T05:46:06;97868.59;;;30.41;48.34
12973;BME280;6551;51.056;9.466;2022-08-25T05:48:32;97866.66;;;30.66;47.51
12973;BME280;6551;51.056;9.466;2022-08-25T05:51:02;97863.09;;;31.02;46.50
12973;BME280;6551;51.056;9.466;2022-08-25T05:53:29;97864.00;;;31.58;45.54
12973;BME280;6551;51.056;9.466;2022-08-25T05:55:59;97859.13;;;31.67;45.30
12973;BME280;6551;51.056;9.466;2022-08-25T05:58:27;97863.47;;;31.96;44.46
12973;BME280;6551;51.056;9.466;2022-08-25T06:00:54;97858.84;;;31.56;44.90
12973;BME280;6551;51.056;9.466;2022-08-25T06:03:20;97870.31;;;31.06;45.95
12973;BME280;6551;51.056;9.466;2022-08-25T06:05:46;97869.41;;;31.02;46.20
12973;BME280;6551;51.056;9.466;2022-08-25T06:08:12;97860.31;;;31.26;45.79
12973;BME280;6551;51.056;9.466;2022-08-25T06:10:38;97860.47;;;30.93;46.46
12973;BME280;6551;51.056;9.466;2022-08-25T06:13:04;97854.03;;;30.77;46.79
12973;BME280;6551;51.056;9.466;2022-08-25T06:15:30;97843.13;;;30.08;48.09
12973;BME280;6551;51.056;9.466;2022-08-25T06:17:56;97847.00;;;29.74;48.54
12973;BME280;6551;51.056;9.466;2022-08-25T06:20:29;97851.06;;;28.27;50.93
12973;BME280;6551;51.056;9.466;2022-08-25T06:22:56;97851.91;;;28.57;51.45
12973;BME280;6551;51.056;9.466;2022-08-25T06:25:24;97845.41;;;28.70;51.15
12973;BME280;6551;51.056;9.466;2022-08-25T06:27:50;97856.78;;;29.10;50.13
12973;BME280;6551;51.056;9.466;2022-08-25T06:30:21;97852.34;;;29.58;49.92
12973;BME280;6551;51.056;9.466;2022-08-25T06:32:47;97849.28;;;28.60;50.74
12973;BME280;6551;51.056;9.466;2022-08-25T06:35:17;97847.59;;;28.85;50.54
12973;BME280;6551;51.056;9.466;2022-08-25T06:37:44;97852.00;;;28.98;50.85
12973;BME280;6551;51.056;9.466;2022-08-25T06:40:12;97847.06;;;29.12;49.96
12973;BME280;6551;51.056;9.466;2022-08-25T06:42:39;97847.66;;;29.38;49.93
12973;BME280;6551;51.056;9.466;2022-08-25T06:45:05;97848.09;;;29.82;48.84
12973;BME280;6551;51.056;9.466;2022-08-25T06:47:31;97858.78;;;30.07;48.72
12973;BME280;6551;51.056;9.466;2022-08-25T06:49:57;97846.69;;;30.33;48.61
12973;BME280;6551;51.056;9.466;2022-08-25T06:52:23;97842.03;;;30.69;48.02
12973;BME280;6551;51.056;9.466;2022-08-25T06:54:49;97838.13;;;30.46;47.41
12973;BME280;6551;51.056;9.466;2022-08-25T06:57:15;97840.06;;;30.82;47.72
12973;BME280;6551;51.056;9.466;2022-08-25T06:59:41;97846.03;;;30.96;46.91
12973;BME280;6551;51.056;9.466;2022-08-25T07:02:06;97840.78;;;31.31;47.01
12973;BME280;6551;51.056;9.466;2022-08-25T07:04:34;97846.06;;;31.24;47.32
12973;BME280;6551;51.056;9.466;2022-08-25T07:07:00;97837.88;;;31.40;46.79
12973;BME280;6551;51.056;9.466;2022-08-25T07:09:26;97836.16;;;31.47;46.44
12973;BME280;6551;51.056;9.466;2022-08-25T07:11:52;97831.19;;;31.80;45.77
12973;BME280;6551;51.056;9.466;2022-08-25T07:14:18;97830.53;;;32.30;45.39
12973;BME280;6551;51.056;9.466;2022-08-25T07:16:48;97823.06;;;32.62;44.92
12973;BME280;6551;51.056;9.466;2022-08-25T07:19:13;97828.13;;;32.76;44.19
12973;BME280;6551;51.056;9.466;2022-08-25T07:21:41;97831.25;;;33.09;44.11
12973;BME280;6551;51.056;9.466;2022-08-25T07:24:11;97821.03;;;33.29;43.39
12973;BME280;6551;51.056;9.466;2022-08-25T07:26:39;97828.63;;;33.16;43.71
12973;BME280;6551;51.056;9.466;2022-08-25T07:29:20;97834.16;;;33.16;43.99
12973;BME280;6551;51.056;9.466;2022-08-25T07:31:47;97829.53;;;33.20;43.31
12973;BME280;6551;51.056;9.466;2022-08-25T07:34:13;97834.53;;;33.53;43.32
12973;BME280;6551;51.056;9.466;2022-08-25T07:36:57;97829.97;;;33.22;43.50
12973;BME280;6551;51.056;9.466;2022-08-25T07:39:24;97835.09;;;33.24;43.56
12973;BME280;6551;51.056;9.466;2022-08-25T07:41:51;97833.44;;;33.19;43.93
12973;BME280;6551;51.056;9.466;2022-08-25T07:44:17;97828.44;;;33.25;43.44
12973;BME280;6551;51.056;9.466;2022-08-25T07:46:43;97838.84;;;33.50;43.33
12973;BME280;6551;51.056;9.466;2022-08-25T07:49:08;97838.53;;;33.75;43.22
12973;BME280;6551;51.056;9.466;2022-08-25T07:51:35;97841.03;;;34.02;42.97
12973;BME280;6551;51.056;9.466;2022-08-25T07:54:01;97845.56;;;34.33;41.83
12973;BME280;6551;51.056;9.466;2022-08-25T07:56:27;97842.22;;;34.47;41.27
12973;BME280;6551;51.056;9.466;2022-08-25T07:58:53;97840.00;;;34.56;41.49
12973;BME280;6551;51.056;9.466;2022-08-25T08:01:22;97844.41;;;34.83;41.58
12973;BME280;6551;51.056;9.466;2022-08-25T08:03:49;97847.31;;;35.20;40.58
12973;BME280;6551;51.056;9.466;2022-08-25T08:06:21;97842.53;;;34.91;40.92
12973;BME280;6551;51.056;9.466;2022-08-25T08:08:51;97841.41;;;35.21;41.26
12973;BME280;6551;51.056;9.466;2022-08-25T08:11:30;97850.06;;;35.50;40.04
12973;BME280;6551;51.056;9.466;2022-08-25T08:13:59;97846.59;;;35.27;40.43
12973;BME280;6551;51.056;9.466;2022-08-25T08:16:28;97843.84;;;35.27;40.22
12973;BME280;6551;51.056;9.466;2022-08-25T08:18:55;97841.03;;;35.23;40.38
12973;BME280;6551;51.056;9.466;2022-08-25T08:21:24;97836.75;;;35.59;39.75
12973;BME280;6551;51.056;9.466;2022-08-25T08:23:52;97839.50;;;35.92;40.29
12973;BME280;6551;51.056;9.466;2022-08-25T08:26:19;97837.44;;;36.66;38.74
12973;BME280;6551;51.056;9.466;2022-08-25T08:28:45;97841.16;;;37.53;37.75
12973;BME280;6551;51.056;9.466;2022-08-25T08:31:12;97844.09;;;37.95;36.38
12973;BME280;6551;51.056;9.466;2022-08-25T08:33:38;97844.53;;;38.26;36.32
12973;BME280;6551;51.056;9.466;2022-08-25T08:36:07;97833.00;;;38.31;35.72
12973;BME280;6551;51.056;9.466;2022-08-25T08:38:36;97843.78;;;38.82;36.12
12973;BME280;6551;51.056;9.466;2022-08-25T08:47:19;97841.78;;;38.61;34.95
12973;BME280;6551;51.056;9.466;2022-08-25T08:52:47;97828.34;;;37.34;36.58
12973;BME280;6551;51.056;9.466;2022-08-25T09:00:52;97833.50;;;37.36;37.03
12973;BME280;6551;51.056;9.466;2022-08-25T09:03:40;97835.88;;;37.34;36.68
12973;BME280;6551;51.056;9.466;2022-08-25T09:06:57;97836.53;;;37.06;36.89
12973;BME280;6551;51.056;9.466;2022-08-25T09:09:02;97834.03;;;36.90;38.00
12973;BME280;6551;51.056;9.466;2022-08-25T09:17:39;97830.75;;;36.27;38.85
12973;BME280;6551;51.056;9.466;2022-08-25T09:20:22;97830.06;;;36.41;38.42
12973;BME280;6551;51.056;9.466;2022-08-25T09:26:11;97819.44;;;38.04;36.18
12973;BME280;6551;51.056;9.466;2022-08-25T09:31:34;97821.25;;;37.44;36.35
12973;BME280;6551;51.056;9.466;2022-08-25T09:34:27;97815.00;;;37.65;36.00
12973;BME280;6551;51.056;9.466;2022-08-25T09:36:55;97812.59;;;37.74;36.49
12973;BME280;6551;51.056;9.466;2022-08-25T09:39:20;97807.81;;;37.53;36.24
12973;BME280;6551;51.056;9.466;2022-08-25T09:41:53;97796.31;;;37.65;36.04
12973;BME280;6551;51.056;9.466;2022-08-25T09:47:01;97800.84;;;38.37;35.68
12973;BME280;6551;51.056;9.466;2022-08-25T09:49:59;97785.31;;;38.32;35.31
12973;BME280;6551;51.056;9.466;2022-08-25T09:55:24;97770.19;;;38.26;35.08
12973;BME280;6551;51.056;9.466;2022-08-25T09:57:54;97774.50;;;37.71;35.46
12973;BME280;6551;51.056;9.466;2022-08-25T10:00:33;97773.38;;;36.96;36.70
12973;BME280;6551;51.056;9.466;2022-08-25T10:03:15;97762.03;;;36.57;36.92
12973;BME280;6551;51.056;9.466;2022-08-25T10:11:32;97755.84;;;37.82;35.92
12973;BME280;6551;51.056;9.466;2022-08-25T10:14:27;97754.88;;;37.25;36.45
12973;BME280;6551;51.056;9.466;2022-08-25T10:17:27;97753.31;;;37.34;35.93
12973;BME280;6551;51.056;9.466;2022-08-25T10:22:39;97730.84;;;38.14;35.02
12973;BME280;6551;51.056;9.466;2022-08-25T10:25:14;97736.78;;;37.91;34.78
12973;BME280;6551;51.056;9.466;2022-08-25T10:28:01;97733.44;;;37.25;35.70
12973;BME280;6551;51.056;9.466;2022-08-25T10:34:15;97718.97;;;36.88;35.70
12973;BME280;6551;51.056;9.466;2022-08-25T10:39:45;97716.44;;;37.44;35.19
12973;BME280;6551;51.056;9.466;2022-08-25T10:45:21;97720.06;;;37.77;35.02
12973;BME280;6551;51.056;9.466;2022-08-25T11:07:47;97683.22;;;39.30;33.21
12973;BME280;6551;51.056;9.466;2022-08-25T11:10:23;97689.50;;;38.09;33.69
12973;BME280;6551;51.056;9.466;2022-08-25T11:12:55;97682.66;;;37.39;35.28
12973;BME280;6551;51.056;9.466;2022-08-25T11:18:07;97680.72;;;37.43;35.31
12973;BME280;6551;51.056;9.466;2022-08-25T11:20:56;97671.94;;;37.34;35.78
12973;BME280;6551;51.056;9.466;2022-08-25T11:23:40;97683.16;;;37.87;35.16
12973;BME280;6551;51.056;9.466;2022-08-25T11:26:12;97670.13;;;36.69;36.34
12973;BME280;6551;51.056;9.466;2022-08-25T11:28:56;97671.34;;;36.75;36.21
12973;BME280;6551;51.056;9.466;2022-08-25T11:31:25;97662.34;;;37.10;35.51
12973;BME280;6551;51.056;9.466;2022-08-25T11:33:53;97656.84;;;37.17;35.62
12973;BME280;6551;51.056;9.466;2022-08-25T11:36:29;97664.84;;;37.47;34.88
12973;BME280;6551;51.056;9.466;2022-08-25T11:45:43;97663.16;;;37.11;35.18
12973;BME280;6551;51.056;9.466;2022-08-25T11:48:40;97656.88;;;37.31;34.12
12973;BME280;6551;51.056;9.466;2022-08-25T11:51:42;97650.56;;;37.56;34.62
12973;BME280;6551;51.056;9.466;2022-08-25T11:54:43;97657.63;;;37.21;34.64
12973;BME280;6551;51.056;9.466;2022-08-25T11:57:20;97649.69;;;37.30;35.73
12973;BME280;6551;51.056;9.466;2022-08-25T12:02:48;97633.50;;;37.82;34.21
12973;BME280;6551;51.056;9.466;2022-08-25T12:10:19;97642.38;;;36.08;36.02
12973;BME280;6551;51.056;9.466;2022-08-25T12:23:44;97613.84;;;35.12;37.40
12973;BME280;6551;51.056;9.466;2022-08-25T12:26:49;97620.31;;;34.90;37.53
12973;BME280;6551;51.056;9.466;2022-08-25T12:40:37;97628.38;;;34.13;39.73
12973;BME280;6551;51.056;9.466;2022-08-25T12:45:50;97634.69;;;34.14;40.74
12973;BME280;6551;51.056;9.466;2022-08-25T12:51:17;97633.28;;;34.86;39.71
12973;BME280;6551;51.056;9.466;2022-08-25T12:56:46;97631.31;;;35.20;38.70
12973;BME280;6551;51.056;9.466;2022-08-25T12:59:20;97639.28;;;35.25;38.80
12973;BME280;6551;51.056;9.466;2022-08-25T13:05:04;97620.91;;;34.73;38.55
12973;BME280;6551;51.056;9.466;2022-08-25T13:11:24;97617.44;;;35.16;38.71
12973;BME280;6551;51.056;9.466;2022-08-25T13:14:52;97607.22;;;35.24;37.87
12973;BME280;6551;51.056;9.466;2022-08-25T13:17:28;97608.38;;;35.19;38.47
12973;BME280;6551;51.056;9.466;2022-08-25T13:20:16;97612.59;;;35.50;37.93
12973;BME280;6551;51.056;9.466;2022-08-25T13:22:47;97610.75;;;35.61;37.49
12973;BME280;6551;51.056;9.466;2022-08-25T13:25:21;97604.84;;;35.22;38.15
12973;BME280;6551;51.056;9.466;2022-08-25T13:27:53;97596.44;;;35.15;37.57
12973;BME280;6551;51.056;9.466;2022-08-25T13:30:30;97587.53;;;34.96;38.56
12973;BME280;6551;51.056;9.466;2022-08-25T13:32:57;97601.19;;;34.78;38.47
12973;BME280;6551;51.056;9.466;2022-08-25T13:35:30;97587.66;;;34.70;39.35
12973;BME280;6551;51.056;9.466;2022-08-25T13:38:17;97597.09;;;34.65;39.41
12973;BME280;6551;51.056;9.466;2022-08-25T13:40:43;97596.91;;;35.21;39.11
12973;BME280;6551;51.056;9.466;2022-08-25T13:43:12;97603.31;;;35.29;39.09
12973;BME280;6551;51.056;9.466;2022-08-25T13:45:46;97587.56;;;34.99;38.25
12973;BME280;6551;51.056;9.466;2022-08-25T13:48:19;97597.56;;;35.07;39.09
12973;BME280;6551;51.056;9.466;2022-08-25T13:51:23;97590.91;;;35.12;38.53
12973;BME280;6551;51.056;9.466;2022-08-25T13:54:43;97584.44;;;35.01;38.29
12973;BME280;6551;51.056;9.466;2022-08-25T13:57:23;97579.03;;;35.11;38.11
12973;BME280;6551;51.056;9.466;2022-08-25T13:59:53;97579.38;;;35.06;38.14
12973;BME280;6551;51.056;9.466;2022-08-25T14:02:47;97580.09;;;35.03;38.70
12973;BME280;6551;51.056;9.466;2022-08-25T14:05:16;97571.06;;;35.06;39.09
12973;BME280;6551;51.056;9.466;2022-08-25T14:07:55;97572.97;;;35.43;38.06
12973;BME280;6551;51.056;9.466;2022-08-25T14:10:42;97568.13;;;35.80;37.73
12973;BME280;6551;51.056;9.466;2022-08-25T14:15:52;97551.63;;;35.47;38.15
12973;BME280;6551;51.056;9.466;2022-08-25T14:18:29;97553.13;;;35.88;37.66
12973;BME280;6551;51.056;9.466;2022-08-25T14:20:56;97558.91;;;36.23;37.25
12973;BME280;6551;51.056;9.466;2022-08-25T14:23:26;97554.63;;;36.40;36.86
12973;BME280;6551;51.056;9.466;2022-08-25T14:25:56;97557.94;;;35.98;36.98
12973;BME280;6551;51.056;9.466;2022-08-25T14:28:28;97547.38;;;36.18;36.53
12973;BME280;6551;51.056;9.466;2022-08-25T14:31:08;97550.88;;;36.08;35.87
12973;BME280;6551;51.056;9.466;2022-08-25T14:33:43;97543.44;;;36.29;36.48
12973;BME280;6551;51.056;9.466;2022-08-25T14:36:10;97537.50;;;36.20;35.54
12973;BME280;6551;51.056;9.466;2022-08-25T14:38:36;97526.88;;;35.71;36.33
12973;BME280;6551;51.056;9.466;2022-08-25T14:41:04;97530.94;;;35.85;36.05
12973;BME280;6551;51.056;9.466;2022-08-25T14:43:32;97532.91;;;35.84;36.09
12973;BME280;6551;51.056;9.466;2022-08-25T14:45:59;97537.75;;;36.01;36.94
12973;BME280;6551;51.056;9.466;2022-08-25T14:48:41;97529.34;;;35.84;36.21
12973;BME280;6551;51.056;9.466;2022-08-25T14:51:11;97527.78;;;35.35;36.76
12973;BME280;6551;51.056;9.466;2022-08-25T14:53:38;97530.06;;;35.22;37.52
12973;BME280;6551;51.056;9.466;2022-08-25T14:56:04;97514.81;;;35.02;37.62
12973;BME280;6551;51.056;9.466;2022-08-25T14:58:30;97521.47;;;35.35;37.62
12973;BME280;6551;51.056;9.466;2022-08-25T15:00:56;97518.47;;;35.57;38.00
12973;BME280;6551;51.056;9.466;2022-08-25T15:03:37;97513.00;;;35.17;38.15
12973;BME280;6551;51.056;9.466;2022-08-25T15:06:04;97515.22;;;35.04;38.45
12973;BME280;6551;51.056;9.466;2022-08-25T15:08:30;97510.81;;;34.96;38.65
12973;BME280;6551;51.056;9.466;2022-08-25T15:11:15;97502.72;;;34.74;38.76
12973;BME280;6551;51.056;9.466;2022-08-25T15:13:41;97505.72;;;34.98;38.03
12973;BME280;6551;51.056;9.466;2022-08-25T15:16:12;97512.97;;;34.73;38.76
12973;BME280;6551;51.056;9.466;2022-08-25T15:18:43;97503.56;;;34.81;38.97
12973;BME280;6551;51.056;9.466;2022-08-25T15:21:09;97516.97;;;34.76;39.04
12973;BME280;6551;51.056;9.466;2022-08-25T15:23:35;97507.34;;;34.66;38.65
12973;BME280;6551;51.056;9.466;2022-08-25T15:26:00;97504.94;;;35.01;37.97
12973;BME280;6551;51.056;9.466;2022-08-25T15:28:26;97503.50;;;33.55;40.44
12973;BME280;6551;51.056;9.466;2022-08-25T15:30:52;97504.50;;;33.40;40.72
12973;BME280;6551;51.056;9.466;2022-08-25T15:33:18;97503.06;;;33.27;40.87
12973;BME280;6551;51.056;9.466;2022-08-25T15:35:44;97507.69;;;33.19;41.10
12973;BME280;6551;51.056;9.466;2022-08-25T15:38:10;97501.91;;;33.05;41.29
12973;BME280;6551;51.056;9.466;2022-08-25T15:40:36;97496.50;;;33.09;41.03
12973;BME280;6551;51.056;9.466;2022-08-25T15:43:04;97499.97;;;33.28;41.88